createdAt,value
2023-04-30T05:40:17.687Z,960.70
2023-04-30T05:41:17.680Z,960.77
2023-04-30T05:42:17.713Z,960.78
2023-04-30T05:43:17.685Z,960.71
2023-04-30T05:44:17.693Z,960.72
2023-04-30T05:45:17.676Z,960.65
2023-04-30T05:46:17.670Z,960.68
2023-04-30T05:47:17.628Z,960.69
2023-04-30T05:48:17.677Z,960.70
2023-04-30T05:49:17.611Z,960.69
2023-04-30T05:50:17.597Z,960.69
2023-04-30T05:51:17.633Z,960.70
2023-04-30T05:52:17.587Z,960.72
2023-04-30T05:53:17.560Z,960.75
2023-04-30T05:54:17.612Z,960.69
2023-04-30T05:55:17.537Z,960.65
2023-04-30T05:56:17.562Z,960.66
2023-04-30T05:57:17.521Z,960.66
2023-04-30T05:58:17.521Z,960.70
2023-04-30T05:59:17.527Z,960.70
2023-04-30T06:00:17.488Z,960.68
2023-04-30T06:01:17.561Z,960.70
2023-04-30T06:02:17.490Z,960.67
2023-04-30T06:03:17.551Z,960.72
2023-04-30T06:04:17.508Z,960.65
2023-04-30T06:05:17.540Z,960.65
2023-04-30T06:06:17.461Z,960.66
2023-04-30T06:07:17.403Z,960.65
2023-04-30T06:08:17.420Z,960.64
2023-04-30T06:09:17.420Z,960.62
2023-04-30T06:10:17.383Z,960.59
2023-04-30T06:11:17.391Z,960.58
2023-04-30T06:12:17.349Z,960.65
2023-04-30T06:13:17.361Z,960.55
2023-04-30T06:14:17.326Z,960.55
2023-04-30T06:15:17.338Z,960.60
2023-04-30T06:16:17.425Z,960.57
2023-04-30T06:17:17.309Z,960.63
2023-04-30T06:18:17.290Z,960.61
2023-04-30T06:19:17.282Z,960.60
2023-04-30T06:20:17.262Z,960.56
2023-04-30T06:21:17.242Z,960.58
2023-04-30T06:22:17.312Z,960.59
2023-04-30T06:23:18.228Z,960.55
2023-04-30T06:24:17.249Z,960.57
2023-04-30T06:25:17.227Z,960.57
2023-04-30T06:26:17.187Z,960.57
2023-04-30T06:27:17.201Z,960.55
2023-04-30T06:28:17.174Z,960.58
2023-04-30T06:29:17.235Z,960.51
2023-04-30T06:30:17.184Z,960.56
2023-04-30T06:31:17.171Z,960.59
2023-04-30T06:32:17.140Z,960.53
2023-04-30T06:33:17.121Z,960.50
2023-04-30T06:34:17.123Z,960.52
2023-04-30T06:35:17.185Z,960.52
2023-04-30T06:36:17.087Z,960.53
2023-04-30T06:37:17.102Z,960.52
2023-04-30T06:38:17.052Z,960.51
2023-04-30T06:39:17.082Z,960.58
2023-04-30T06:40:17.060Z,960.57
2023-04-30T06:41:17.064Z,960.58
2023-04-30T06:42:17.013Z,960.53
2023-04-30T06:43:17.075Z,960.59
2023-04-30T06:44:17.000Z,960.57
2023-04-30T06:45:17.007Z,960.58
2023-04-30T06:46:17.035Z,960.58
2023-04-30T06:47:17.119Z,960.55
2023-04-30T06:48:17.008Z,960.54
2023-04-30T06:49:16.951Z,960.54
2023-04-30T06:50:16.957Z,960.54
2023-04-30T06:51:16.922Z,960.55
2023-04-30T06:52:16.905Z,960.53
2023-04-30T06:53:16.895Z,960.56
2023-04-30T06:54:16.877Z,960.57
2023-04-30T06:55:16.913Z,960.57
2023-04-30T06:56:16.848Z,960.58
2023-04-30T06:57:16.862Z,960.60
2023-04-30T06:58:16.828Z,960.63
2023-04-30T06:59:16.958Z,960.60
2023-04-30T07:00:16.856Z,960.57
2023-04-30T07:01:16.861Z,960.55
2023-04-30T07:02:16.922Z,960.51
2023-04-30T07:03:16.957Z,960.54
2023-04-30T07:04:16.823Z,960.50
2023-04-30T07:05:16.787Z,960.49
2023-04-30T07:06:16.867Z,960.49
2023-04-30T07:07:16.731Z,960.47
2023-04-30T07:08:16.731Z,960.52
2023-04-30T07:09:16.709Z,960.54
2023-04-30T07:10:17.202Z,960.54
2023-04-30T07:11:16.697Z,960.55
2023-04-30T07:12:16.701Z,960.54
2023-04-30T07:13:16.660Z,960.51
2023-04-30T07:14:16.676Z,960.50
2023-04-30T07:15:16.709Z,960.55
2023-04-30T07:16:16.717Z,960.56
2023-04-30T07:17:16.623Z,960.59
2023-04-30T07:18:16.614Z,960.60
2023-04-30T07:19:16.611Z,960.55
2023-04-30T07:20:16.603Z,960.56
2023-04-30T07:21:16.568Z,960.56
2023-04-30T07:22:16.569Z,960.54
2023-04-30T07:23:16.566Z,960.52
2023-04-30T07:24:16.530Z,960.50
2023-04-30T07:25:16.545Z,960.54
2023-04-30T07:26:16.510Z,960.54
2023-04-30T07:27:16.499Z,960.55
2023-04-30T07:28:16.580Z,960.49
2023-04-30T07:29:16.533Z,960.47
2023-04-30T07:30:16.473Z,960.51
2023-04-30T07:31:16.490Z,960.47
2023-04-30T07:32:16.525Z,960.50
2023-04-30T07:33:16.489Z,960.55
2023-04-30T07:34:16.498Z,960.52
2023-04-30T07:35:16.443Z,960.50
2023-04-30T07:36:16.662Z,960.50
2023-04-30T07:37:16.400Z,960.52
2023-04-30T07:38:16.425Z,960.57
2023-04-30T07:39:16.385Z,960.48
2023-04-30T07:40:25.477Z,960.49
2023-04-30T07:41:16.380Z,960.48
2023-04-30T07:42:16.355Z,960.46
2023-04-30T07:43:16.332Z,960.43
2023-04-30T07:44:16.334Z,960.55
2023-04-30T07:45:16.323Z,960.56
2023-04-30T07:46:16.411Z,960.44
2023-04-30T07:47:16.290Z,960.47
2023-04-30T07:48:16.301Z,960.47
2023-04-30T07:49:16.271Z,960.45
2023-04-30T07:50:16.262Z,960.46
2023-04-30T07:51:16.259Z,960.50
2023-04-30T07:52:16.244Z,960.49
2023-04-30T07:53:16.224Z,960.44
2023-04-30T07:54:16.213Z,960.46
2023-04-30T07:55:16.230Z,960.40
2023-04-30T07:56:16.217Z,960.39
2023-04-30T07:57:16.190Z,960.37
2023-04-30T07:58:16.169Z,960.38
2023-04-30T07:59:16.152Z,960.37
2023-04-30T08:00:16.160Z,960.41
2023-04-30T08:01:16.146Z,960.40
2023-04-30T08:02:16.150Z,960.45
2023-04-30T08:03:16.208Z,960.42
2023-04-30T08:04:16.164Z,960.49
2023-04-30T08:05:16.092Z,960.48
2023-04-30T08:06:16.143Z,960.42
2023-04-30T08:07:16.091Z,960.45
2023-04-30T08:08:16.078Z,960.44
2023-04-30T08:09:16.051Z,960.47
2023-04-30T08:10:16.044Z,960.54
2023-04-30T08:11:16.067Z,960.46
2023-04-30T08:12:16.059Z,960.46
2023-04-30T08:13:16.003Z,960.45
2023-04-30T08:14:16.021Z,960.49
2023-04-30T08:15:15.974Z,960.47
2023-04-30T08:16:16.016Z,960.48
2023-04-30T08:17:15.981Z,960.47
2023-04-30T08:18:15.969Z,960.43
2023-04-30T08:19:15.946Z,960.49
2023-04-30T08:20:15.936Z,960.44
2023-04-30T08:21:15.968Z,960.41
2023-04-30T08:22:15.926Z,960.49
2023-04-30T08:23:15.884Z,960.41
2023-04-30T08:24:15.880Z,960.42
2023-04-30T08:25:15.904Z,960.41
2023-04-30T08:26:15.884Z,960.43
2023-04-30T08:27:15.878Z,960.38
2023-04-30T08:28:15.840Z,960.37
2023-04-30T08:29:15.838Z,960.38
2023-04-30T08:30:15.809Z,960.37
2023-04-30T08:31:15.860Z,960.34
2023-04-30T08:32:15.865Z,960.38
2023-04-30T08:33:15.861Z,960.40
2023-04-30T08:34:15.770Z,960.39
2023-04-30T08:35:15.812Z,960.43
2023-04-30T08:36:15.788Z,960.41
2023-04-30T08:37:15.746Z,960.40
2023-04-30T08:38:15.722Z,960.36
2023-04-30T08:39:15.734Z,960.40
2023-04-30T08:40:15.696Z,960.40
2023-04-30T08:41:15.712Z,960.40
2023-04-30T08:42:15.671Z,960.39
2023-04-30T08:43:15.775Z,960.42
2023-04-30T08:44:15.644Z,960.45
2023-04-30T08:45:15.663Z,960.40
2023-04-30T08:46:15.640Z,960.37
2023-04-30T08:47:15.669Z,960.34
2023-04-30T08:48:15.663Z,960.35
2023-04-30T08:49:15.593Z,960.37
2023-04-30T08:50:15.627Z,960.37
2023-04-30T08:51:15.596Z,960.41
2023-04-30T08:52:15.557Z,960.42
2023-04-30T08:53:15.567Z,960.36
2023-04-30T08:54:15.551Z,960.37
2023-04-30T08:55:15.604Z,960.43
2023-04-30T08:56:15.535Z,960.42
2023-04-30T08:57:15.510Z,960.45
2023-04-30T08:58:15.531Z,960.44
2023-04-30T08:59:15.475Z,960.47
2023-04-30T09:00:15.473Z,960.52
2023-04-30T09:01:15.535Z,960.45
2023-04-30T09:02:15.500Z,960.46
2023-04-30T09:03:15.521Z,960.45
2023-04-30T09:04:15.518Z,960.45
2023-04-30T09:05:15.419Z,960.45
2023-04-30T09:06:15.426Z,960.49
2023-04-30T09:07:15.485Z,960.53
2023-04-30T09:08:15.430Z,960.54
2023-04-30T09:09:15.428Z,960.45
2023-04-30T09:10:15.385Z,960.53
2023-04-30T09:11:15.360Z,960.54
2023-04-30T09:12:18.493Z,960.47
2023-04-30T09:13:15.365Z,960.45
2023-04-30T09:14:15.376Z,960.48
2023-04-30T09:15:15.362Z,960.44
2023-04-30T09:16:15.367Z,960.46
2023-04-30T09:17:15.625Z,960.51
2023-04-30T09:18:15.369Z,960.46
2023-04-30T09:19:15.265Z,960.46
2023-04-30T09:20:15.266Z,960.50
2023-04-30T09:21:15.238Z,960.44
2023-04-30T09:22:15.272Z,960.48
2023-04-30T09:23:15.214Z,960.53
2023-04-30T09:24:16.653Z,960.48
2023-04-30T09:25:15.203Z,960.47
2023-04-30T09:26:15.172Z,960.56
2023-04-30T09:27:15.194Z,960.46
2023-04-30T09:28:15.148Z,960.46
2023-04-30T09:29:15.175Z,960.49
2023-04-30T09:30:15.232Z,960.50
2023-04-30T09:31:15.391Z,960.47
2023-04-30T09:32:15.139Z,960.50
2023-04-30T09:33:15.141Z,960.47
2023-04-30T09:34:15.162Z,960.42
2023-04-30T09:35:15.099Z,960.44
2023-04-30T09:36:15.095Z,960.49
2023-04-30T09:37:15.068Z,960.44
2023-04-30T09:38:15.046Z,960.47
2023-04-30T09:39:16.018Z,960.41
2023-04-30T09:40:15.012Z,960.47
2023-04-30T09:41:15.016Z,960.47
2023-04-30T09:42:15.055Z,960.50
2023-04-30T09:43:15.004Z,960.47
2023-04-30T09:44:14.984Z,960.44
2023-04-30T09:45:14.989Z,960.41
2023-04-30T09:46:15.018Z,960.48
2023-04-30T09:47:14.991Z,960.45
2023-04-30T09:48:17.674Z,960.43
2023-04-30T09:49:14.921Z,960.43
2023-04-30T09:50:14.906Z,960.46
2023-04-30T09:51:14.896Z,960.44
2023-04-30T09:52:14.896Z,960.44
2023-04-30T09:53:14.912Z,960.49
2023-04-30T09:54:14.872Z,960.48
2023-04-30T09:55:14.864Z,960.45
2023-04-30T09:56:14.978Z,960.50
2023-04-30T09:57:14.881Z,960.44
2023-04-30T09:58:14.956Z,960.43
2023-04-30T09:59:14.838Z,960.44
2023-04-30T10:00:14.823Z,960.45
2023-04-30T10:01:14.853Z,960.42
2023-04-30T10:02:14.782Z,960.44
2023-04-30T10:03:14.793Z,960.41
2023-04-30T10:04:14.763Z,960.43
2023-04-30T10:05:14.745Z,960.40
2023-04-30T10:06:14.775Z,960.41
2023-04-30T10:07:16.062Z,960.44
2023-04-30T10:08:14.708Z,960.39
2023-04-30T10:09:14.713Z,960.46
2023-04-30T10:10:14.687Z,960.49
2023-04-30T10:11:14.741Z,960.47
2023-04-30T10:12:14.676Z,960.49
2023-04-30T10:13:14.733Z,960.45
2023-04-30T10:14:14.639Z,960.45
2023-04-30T10:15:14.635Z,960.47
2023-04-30T10:16:14.622Z,960.45
2023-04-30T10:17:14.623Z,960.44
2023-04-30T10:18:14.659Z,960.37
2023-04-30T10:19:14.644Z,960.38
2023-04-30T10:20:14.692Z,960.37
2023-04-30T10:21:14.578Z,960.41
2023-04-30T10:22:14.553Z,960.30
2023-04-30T10:23:14.633Z,960.34
2023-04-30T10:24:14.558Z,960.34
2023-04-30T10:25:14.515Z,960.27
2023-04-30T10:26:14.538Z,960.29
2023-04-30T10:27:14.504Z,960.30
2023-04-30T10:28:14.535Z,960.25
2023-04-30T10:29:14.483Z,960.28
2023-04-30T10:30:14.490Z,960.26
2023-04-30T10:31:14.462Z,960.25
2023-04-30T10:32:14.499Z,960.22
2023-04-30T10:33:16.421Z,960.25
2023-04-30T10:34:14.459Z,960.27
2023-04-30T10:35:14.521Z,960.24
2023-04-30T10:36:14.391Z,960.23
2023-04-30T10:37:14.381Z,960.22
2023-04-30T10:38:14.399Z,960.23
2023-04-30T10:39:14.359Z,960.25
2023-04-30T10:40:14.403Z,960.20
2023-04-30T10:41:14.343Z,960.17
2023-04-30T10:42:14.328Z,960.12
2023-04-30T10:43:14.344Z,960.12
2023-04-30T10:44:14.326Z,960.11
2023-04-30T10:45:14.319Z,960.07
2023-04-30T10:46:14.356Z,960.08
2023-04-30T10:47:14.328Z,960.10
2023-04-30T10:48:14.363Z,960.08
2023-04-30T10:49:14.322Z,960.06
2023-04-30T10:50:14.361Z,960.07
2023-04-30T10:51:14.221Z,960.06
2023-04-30T10:52:14.242Z,960.02
2023-04-30T10:53:14.218Z,960.05
2023-04-30T10:54:14.215Z,960.03
2023-04-30T10:55:14.191Z,960.04
2023-04-30T10:56:14.218Z,960.03
2023-04-30T10:57:14.213Z,960.00
2023-04-30T10:58:14.200Z,960.04
2023-04-30T10:59:14.217Z,960.01
2023-04-30T11:00:14.165Z,959.95
2023-04-30T11:01:14.201Z,959.98
2023-04-30T11:02:14.173Z,960.00
2023-04-30T11:03:14.133Z,960.06
2023-04-30T11:04:14.117Z,960.00
2023-04-30T11:05:14.293Z,960.02
2023-04-30T11:06:14.112Z,959.98
2023-04-30T11:07:14.052Z,959.94
2023-04-30T11:08:14.067Z,959.96
2023-04-30T11:09:14.049Z,959.92
2023-04-30T11:10:14.064Z,959.92
2023-04-30T11:11:14.001Z,959.87
2023-04-30T11:12:13.992Z,959.91
2023-04-30T11:13:13.999Z,959.85
2023-04-30T11:14:13.980Z,959.84
2023-04-30T11:15:14.128Z,959.89
2023-04-30T11:16:14.012Z,959.92
2023-04-30T11:17:13.950Z,959.89
2023-04-30T11:18:13.948Z,959.88
2023-04-30T11:19:13.950Z,959.87
2023-04-30T11:20:13.978Z,959.83
2023-04-30T11:21:13.902Z,959.86
2023-04-30T11:22:13.890Z,959.88
2023-04-30T11:23:17.415Z,959.84
2023-04-30T11:24:13.946Z,959.82
2023-04-30T11:25:13.913Z,959.78
2023-04-30T11:26:13.839Z,959.80
2023-04-30T11:27:13.845Z,959.79
2023-04-30T11:28:13.817Z,959.74
2023-04-30T11:29:13.857Z,959.75
2023-04-30T11:30:13.810Z,959.72
2023-04-30T11:31:15.366Z,959.75
2023-04-30T11:32:13.908Z,959.73
2023-04-30T11:33:13.772Z,959.69
2023-04-30T11:34:13.815Z,959.66
2023-04-30T11:35:13.796Z,959.70
2023-04-30T11:36:13.729Z,959.77
2023-04-30T11:37:13.725Z,959.81
2023-04-30T11:38:13.720Z,959.76
2023-04-30T11:39:13.728Z,959.76
2023-04-30T11:40:13.803Z,959.75
2023-04-30T11:41:13.707Z,959.76
2023-04-30T11:42:13.752Z,959.80
2023-04-30T11:43:13.665Z,959.77
2023-04-30T11:44:13.673Z,959.77
2023-04-30T11:45:13.699Z,959.76
2023-04-30T11:46:13.706Z,959.77
2023-04-30T11:47:13.606Z,959.71
2023-04-30T11:48:13.737Z,959.71
2023-04-30T11:49:13.604Z,959.71
2023-04-30T11:50:13.639Z,959.72
2023-04-30T11:51:13.553Z,959.72
2023-04-30T11:52:13.602Z,959.75
2023-04-30T11:53:13.544Z,959.75
2023-04-30T11:54:13.590Z,959.74
2023-04-30T11:55:13.643Z,959.62
2023-04-30T11:56:13.515Z,959.73
2023-04-30T11:57:13.495Z,959.72
2023-04-30T11:58:13.557Z,959.68
2023-04-30T11:59:13.485Z,959.73
2023-04-30T12:00:13.542Z,959.74
2023-04-30T12:01:13.451Z,959.70
2023-04-30T12:02:13.741Z,959.66
2023-04-30T12:03:13.477Z,959.74
2023-04-30T12:04:13.547Z,959.71
2023-04-30T12:05:13.404Z,959.72
2023-04-30T12:06:13.436Z,959.66
2023-04-30T12:07:13.450Z,959.65
2023-04-30T12:08:13.429Z,959.69
2023-04-30T12:09:13.433Z,959.70
2023-04-30T12:10:13.461Z,959.69
2023-04-30T12:11:13.346Z,959.68
2023-04-30T12:12:13.335Z,959.71
2023-04-30T12:13:13.356Z,959.69
2023-04-30T12:14:13.360Z,959.68
2023-04-30T12:15:13.307Z,959.68
2023-04-30T12:16:13.369Z,959.66
2023-04-30T12:17:13.290Z,959.66
2023-04-30T12:18:13.438Z,959.66
2023-04-30T12:19:13.283Z,959.71
2023-04-30T12:20:13.371Z,959.69
2023-04-30T12:21:13.248Z,959.69
2023-04-30T12:22:13.211Z,959.62
2023-04-30T12:23:13.253Z,959.62
2023-04-30T12:24:13.209Z,959.62
2023-04-30T12:25:13.177Z,959.65
2023-04-30T12:26:13.220Z,959.64
2023-04-30T12:27:13.193Z,959.65
2023-04-30T12:28:13.194Z,959.66
2023-04-30T12:29:15.404Z,959.62
2023-04-30T12:30:13.142Z,959.65
2023-04-30T12:31:13.115Z,959.62
2023-04-30T12:32:13.102Z,959.66
2023-04-30T12:33:13.247Z,959.62
2023-04-30T12:34:13.102Z,959.67
2023-04-30T12:35:13.141Z,959.66
2023-04-30T12:36:13.187Z,959.59
2023-04-30T12:37:13.040Z,959.68
2023-04-30T12:38:13.094Z,959.65
2023-04-30T12:39:13.049Z,959.64
2023-04-30T12:40:13.025Z,959.58
2023-04-30T12:41:13.121Z,959.69
2023-04-30T12:42:13.917Z,959.62
2023-04-30T12:43:12.990Z,959.62
2023-04-30T12:44:13.007Z,959.57
2023-04-30T12:45:12.952Z,959.57
2023-04-30T12:46:13.048Z,959.58
2023-04-30T12:47:13.099Z,959.56
2023-04-30T12:48:13.087Z,959.59
2023-04-30T12:49:12.907Z,959.57
2023-04-30T12:50:12.983Z,959.57
2023-04-30T12:51:12.890Z,959.57
2023-04-30T12:52:13.821Z,959.43
2023-04-30T12:53:12.866Z,959.51
2023-04-30T12:54:12.949Z,959.47
2023-04-30T12:55:12.860Z,959.40
2023-04-30T12:56:12.838Z,959.46
2023-04-30T12:57:12.894Z,959.46
2023-04-30T12:58:12.840Z,959.40
2023-04-30T12:59:13.249Z,959.43
2023-04-30T13:00:12.833Z,959.41
2023-04-30T13:01:12.896Z,959.38
2023-04-30T13:02:12.893Z,959.41
2023-04-30T13:03:12.862Z,959.38
2023-04-30T13:04:12.824Z,959.39
2023-04-30T13:05:14.101Z,959.34
2023-04-30T13:06:12.774Z,959.30
2023-04-30T13:07:12.708Z,959.27
2023-04-30T13:08:12.704Z,959.31
2023-04-30T13:09:12.710Z,959.23
2023-04-30T13:10:12.680Z,959.18
2023-04-30T13:11:12.674Z,959.12
2023-04-30T13:12:12.700Z,959.21
2023-04-30T13:13:12.646Z,959.15
2023-04-30T13:14:12.637Z,959.15
2023-04-30T13:15:12.622Z,959.10
2023-04-30T13:16:12.671Z,959.12
2023-04-30T13:17:12.637Z,959.09
2023-04-30T13:18:12.745Z,959.11
2023-04-30T13:19:12.668Z,959.05
2023-04-30T13:20:12.590Z,959.04
2023-04-30T13:21:12.561Z,959.08
2023-04-30T13:22:12.553Z,959.10
2023-04-30T13:23:12.524Z,959.07
2023-04-30T13:24:12.551Z,959.13
2023-04-30T13:25:12.694Z,959.05
2023-04-30T13:26:12.503Z,959.08
2023-04-30T13:27:12.502Z,959.13
2023-04-30T13:28:12.502Z,959.12
2023-04-30T13:29:12.470Z,959.06
2023-04-30T13:30:12.460Z,959.08
2023-04-30T13:31:12.465Z,958.96
2023-04-30T13:32:12.452Z,958.99
2023-04-30T13:33:12.437Z,958.93
2023-04-30T13:34:12.440Z,958.98
2023-04-30T13:35:12.433Z,958.99
2023-04-30T13:36:12.406Z,958.97
2023-04-30T13:37:12.374Z,958.87
2023-04-30T13:38:12.419Z,958.85
2023-04-30T13:39:12.346Z,958.86
2023-04-30T13:40:12.401Z,958.78
2023-04-30T13:41:12.361Z,958.83
2023-04-30T13:42:12.330Z,958.86
2023-04-30T13:43:12.325Z,958.80
2023-04-30T13:44:12.312Z,958.80
2023-04-30T13:45:12.294Z,958.83
2023-04-30T13:46:12.341Z,958.85
2023-04-30T13:47:12.408Z,958.81
2023-04-30T13:48:12.271Z,958.74
2023-04-30T13:49:12.277Z,958.77
2023-04-30T13:50:12.262Z,958.71
2023-04-30T13:51:12.218Z,958.73
2023-04-30T13:52:12.246Z,958.66
2023-04-30T13:53:12.203Z,958.75
2023-04-30T13:54:12.181Z,958.70
2023-04-30T13:55:12.268Z,958.71
2023-04-30T13:56:12.167Z,958.73
2023-04-30T13:57:12.199Z,958.63
2023-04-30T13:58:12.151Z,958.68
2023-04-30T13:59:12.182Z,958.63
2023-04-30T14:00:12.397Z,958.67
2023-04-30T14:01:12.139Z,958.71
2023-04-30T14:02:12.162Z,958.69
2023-04-30T14:03:12.203Z,958.66
2023-04-30T14:04:12.206Z,958.71
2023-04-30T14:05:12.263Z,958.66
2023-04-30T14:06:12.090Z,958.67
2023-04-30T14:07:12.051Z,958.69
2023-04-30T14:08:12.049Z,958.62
2023-04-30T14:09:12.015Z,958.66
2023-04-30T14:10:12.019Z,958.65
2023-04-30T14:11:11.990Z,958.68
2023-04-30T14:12:11.992Z,958.65
2023-04-30T14:13:12.081Z,958.67
2023-04-30T14:14:12.310Z,958.68
2023-04-30T14:15:11.964Z,958.68
2023-04-30T14:16:12.007Z,958.66
2023-04-30T14:17:11.961Z,958.66
2023-04-30T14:18:12.014Z,958.71
2023-04-30T14:19:12.451Z,958.69
2023-04-30T14:20:12.030Z,958.64
2023-04-30T14:21:11.984Z,958.62
2023-04-30T14:22:11.917Z,958.63
2023-04-30T14:23:11.855Z,958.58
2023-04-30T14:24:11.852Z,958.62
2023-04-30T14:25:11.922Z,958.63
2023-04-30T14:26:11.824Z,958.64
2023-04-30T14:27:11.809Z,958.53
2023-04-30T14:28:11.831Z,958.61
2023-04-30T14:29:11.814Z,958.57
2023-04-30T14:30:11.813Z,958.49
2023-04-30T14:31:11.802Z,958.50
2023-04-30T14:32:11.902Z,958.47
2023-04-30T14:33:11.790Z,958.53
2023-04-30T14:34:11.825Z,958.56
2023-04-30T14:35:11.832Z,958.55
2023-04-30T14:36:11.735Z,958.45
2023-04-30T14:37:11.711Z,958.54
2023-04-30T14:38:11.776Z,958.49
2023-04-30T14:39:11.685Z,958.48
2023-04-30T14:40:11.738Z,958.46
2023-04-30T14:41:11.714Z,958.54
2023-04-30T14:42:11.659Z,958.50
2023-04-30T14:43:11.675Z,958.48
2023-04-30T14:44:11.696Z,958.46
2023-04-30T14:45:11.642Z,958.50
2023-04-30T14:46:11.628Z,958.42
2023-04-30T14:47:11.633Z,958.47
2023-04-30T14:48:11.753Z,958.51
2023-04-30T14:49:11.761Z,958.47
2023-04-30T14:50:11.576Z,958.40
2023-04-30T14:51:11.547Z,958.42
2023-04-30T14:52:11.550Z,958.42
2023-04-30T14:53:11.556Z,958.43
2023-04-30T14:54:11.524Z,958.37
2023-04-30T14:55:11.527Z,958.36
2023-04-30T14:56:11.540Z,958.39
2023-04-30T14:57:11.514Z,958.35
2023-04-30T14:58:11.471Z,958.30
2023-04-30T14:59:11.480Z,958.38
2023-04-30T15:00:11.980Z,958.49
2023-04-30T15:01:11.531Z,958.39
2023-04-30T15:02:11.510Z,958.38
2023-04-30T15:03:11.506Z,958.40
2023-04-30T15:04:11.469Z,958.42
2023-04-30T15:05:11.440Z,958.47
2023-04-30T15:06:11.433Z,958.44
2023-04-30T15:07:11.398Z,958.44
2023-04-30T15:08:11.365Z,958.46
2023-04-30T15:09:11.396Z,958.46
2023-04-30T15:10:11.353Z,958.46
2023-04-30T15:11:11.325Z,958.45
2023-04-30T15:12:11.312Z,958.49
2023-04-30T15:13:11.320Z,958.46
2023-04-30T15:14:11.295Z,958.50
2023-04-30T15:15:11.298Z,958.45
2023-04-30T15:16:11.387Z,958.44
2023-04-30T15:17:11.319Z,958.44
2023-04-30T15:18:11.250Z,958.45
2023-04-30T15:19:11.250Z,958.52
2023-04-30T15:20:11.261Z,958.48
2023-04-30T15:21:11.218Z,958.49
2023-04-30T15:22:11.200Z,958.50
2023-04-30T15:23:11.207Z,958.45
2023-04-30T15:24:11.192Z,958.40
2023-04-30T15:25:11.194Z,958.45
2023-04-30T15:26:11.152Z,958.38
2023-04-30T15:27:11.205Z,958.40
2023-04-30T15:28:11.163Z,958.35
2023-04-30T15:29:11.149Z,958.40
2023-04-30T15:30:11.168Z,958.32
2023-04-30T15:31:11.147Z,958.37
2023-04-30T15:32:11.114Z,958.37
2023-04-30T15:33:11.175Z,958.31
2023-04-30T15:34:11.100Z,958.37
2023-04-30T15:35:11.114Z,958.39
2023-04-30T15:36:11.117Z,958.37
2023-04-30T15:37:11.034Z,958.41
2023-04-30T15:38:11.032Z,958.37
2023-04-30T15:39:11.016Z,958.38
2023-04-30T15:40:11.025Z,958.38
2023-04-30T15:41:11.008Z,958.33
2023-04-30T15:42:10.978Z,958.32
2023-04-30T15:43:10.994Z,958.29
2023-04-30T15:44:10.997Z,958.35
2023-04-30T15:45:10.955Z,958.35
2023-04-30T15:46:10.977Z,958.40
2023-04-30T15:47:11.398Z,958.39
2023-04-30T15:48:10.906Z,958.38
2023-04-30T15:49:10.943Z,958.33
2023-04-30T15:50:10.904Z,958.32
2023-04-30T15:51:10.941Z,958.33
2023-04-30T15:52:10.881Z,958.36
2023-04-30T15:53:10.864Z,958.33
2023-04-30T15:54:10.835Z,958.35
2023-04-30T15:55:10.905Z,958.30
2023-04-30T15:56:10.851Z,958.28
2023-04-30T15:57:10.834Z,958.27
2023-04-30T15:58:10.851Z,958.21
2023-04-30T15:59:10.797Z,958.26
2023-04-30T16:00:10.839Z,958.23
2023-04-30T16:01:10.857Z,958.17
2023-04-30T16:02:10.894Z,958.18
2023-04-30T16:03:10.864Z,958.21
2023-04-30T16:04:11.018Z,958.19
2023-04-30T16:05:10.735Z,958.19
2023-04-30T16:06:10.746Z,958.19
2023-04-30T16:07:10.728Z,958.23
2023-04-30T16:08:10.702Z,958.17
2023-04-30T16:09:10.748Z,958.21
2023-04-30T16:10:10.708Z,958.22
2023-04-30T16:11:10.750Z,958.22
2023-04-30T16:12:10.680Z,958.19
2023-04-30T16:13:10.643Z,958.19
2023-04-30T16:14:10.623Z,958.21
2023-04-30T16:15:10.621Z,958.19
2023-04-30T16:16:10.685Z,958.25
2023-04-30T16:17:10.598Z,958.21
2023-04-30T16:18:10.614Z,958.18
2023-04-30T16:19:10.628Z,958.17
2023-04-30T16:20:10.652Z,958.22
2023-04-30T16:21:10.796Z,958.24
2023-04-30T16:22:10.530Z,958.24
2023-04-30T16:23:10.533Z,958.25
2023-04-30T16:24:10.520Z,958.28
2023-04-30T16:25:10.507Z,958.19
2023-04-30T16:26:10.500Z,958.22
2023-04-30T16:27:10.634Z,958.17
2023-04-30T16:28:10.541Z,958.16
2023-04-30T16:29:10.480Z,958.16
2023-04-30T16:30:10.436Z,958.17
2023-04-30T16:31:10.465Z,958.10
2023-04-30T16:32:10.491Z,958.16
2023-04-30T16:33:10.451Z,958.14
2023-04-30T16:34:10.425Z,958.08
2023-04-30T16:35:10.457Z,958.12
2023-04-30T16:36:10.418Z,958.09
2023-04-30T16:37:10.637Z,958.04
2023-04-30T16:38:10.368Z,958.03
2023-04-30T16:39:10.423Z,958.05
2023-04-30T16:40:10.406Z,958.06
2023-04-30T16:41:10.340Z,958.00
2023-04-30T16:42:10.306Z,958.07
2023-04-30T16:43:10.326Z,958.02
2023-04-30T16:44:10.286Z,958.01
2023-04-30T16:45:10.344Z,958.03
2023-04-30T16:46:10.341Z,958.03
2023-04-30T16:47:10.273Z,958.05
2023-04-30T16:48:10.279Z,958.01
2023-04-30T16:49:10.283Z,958.03
2023-04-30T16:50:10.338Z,958.01
2023-04-30T16:51:10.223Z,958.01
2023-04-30T16:52:10.219Z,958.00
2023-04-30T16:53:11.106Z,958.06
2023-04-30T16:54:10.241Z,958.05
2023-04-30T16:55:10.168Z,958.06
2023-04-30T16:56:10.243Z,958.00
2023-04-30T16:57:10.184Z,958.04
2023-04-30T16:58:10.133Z,958.03
2023-04-30T16:59:10.133Z,958.08
2023-04-30T17:00:10.108Z,958.09
2023-04-30T17:01:10.124Z,958.00
2023-04-30T17:02:10.159Z,958.10
2023-04-30T17:03:10.179Z,958.10
2023-04-30T17:04:10.076Z,958.07
2023-04-30T17:05:10.656Z,958.10
2023-04-30T17:06:10.308Z,958.09
2023-04-30T17:07:10.047Z,958.13
2023-04-30T17:08:10.075Z,958.09
2023-04-30T17:09:10.011Z,958.10
2023-04-30T17:10:10.048Z,958.13
2023-04-30T17:11:10.772Z,958.14
2023-04-30T17:12:09.989Z,958.12
2023-04-30T17:13:09.986Z,958.16
2023-04-30T17:14:11.023Z,958.16
2023-04-30T17:15:09.938Z,958.17
2023-04-30T17:16:09.992Z,958.13
2023-04-30T17:17:09.951Z,958.13
2023-04-30T17:18:09.952Z,958.18
2023-04-30T17:19:09.886Z,958.16
2023-04-30T17:20:09.895Z,958.17
2023-04-30T17:21:09.889Z,958.13
2023-04-30T17:22:10.840Z,958.12
2023-04-30T17:23:09.849Z,958.16
2023-04-30T17:24:09.854Z,958.11
2023-04-30T17:25:09.830Z,958.16
2023-04-30T17:26:09.823Z,958.12
2023-04-30T17:27:09.837Z,958.11
2023-04-30T17:28:09.805Z,958.10
2023-04-30T17:29:09.807Z,958.15
2023-04-30T17:30:09.805Z,958.17
2023-04-30T17:31:09.805Z,958.17
2023-04-30T17:32:09.758Z,958.15
2023-04-30T17:33:09.775Z,958.16
2023-04-30T17:34:09.720Z,958.13
2023-04-30T17:35:09.716Z,958.12
2023-04-30T17:36:09.744Z,958.14
2023-04-30T17:37:09.705Z,958.18
2023-04-30T17:38:09.794Z,958.10
2023-04-30T17:39:09.672Z,958.12
2023-04-30T17:40:09.652Z,958.11
2023-04-30T17:41:09.657Z,958.10
2023-04-30T17:42:09.780Z,958.19
2023-04-30T17:43:09.634Z,958.13
2023-04-30T17:44:09.613Z,958.15
2023-04-30T17:45:09.620Z,958.12
2023-04-30T17:46:09.705Z,958.15
2023-04-30T17:47:09.907Z,958.13
2023-04-30T17:48:09.590Z,958.19
2023-04-30T17:49:09.559Z,958.21
2023-04-30T17:50:09.556Z,958.21
2023-04-30T17:51:09.539Z,958.15
2023-04-30T17:52:09.531Z,958.17
2023-04-30T17:53:09.590Z,958.20
2023-04-30T17:54:09.521Z,958.17
2023-04-30T17:55:09.515Z,958.16
2023-04-30T17:56:09.479Z,958.16
2023-04-30T17:57:09.494Z,958.16
2023-04-30T17:58:09.489Z,958.17
2023-04-30T17:59:09.479Z,958.09
2023-04-30T18:00:09.582Z,958.14
2023-04-30T18:01:09.448Z,958.14
2023-04-30T18:02:09.477Z,958.12
2023-04-30T18:03:09.556Z,958.15
2023-04-30T18:04:09.445Z,958.13
2023-04-30T18:05:09.393Z,958.12
2023-04-30T18:06:09.443Z,958.15
2023-04-30T18:07:09.454Z,958.13
2023-04-30T18:08:09.347Z,958.19